createdAt,value
2022-09-29T03:57:59.818Z,12.58
2022-09-29T04:01:02.238Z,12.56
2022-09-29T04:04:06.747Z,12.59
2022-09-29T04:07:08.971Z,12.55
2022-09-29T04:10:11.372Z,12.46
2022-09-29T04:13:19.027Z,12.56
2022-09-29T04:16:22.313Z,12.58
2022-09-29T04:19:24.937Z,12.68
2022-09-29T04:22:27.226Z,12.56
2022-09-29T04:25:29.288Z,12.60
2022-09-29T04:28:33.478Z,12.59
2022-09-29T04:31:35.566Z,12.60
2022-09-29T04:34:38.101Z,12.65
2022-09-29T04:37:40.108Z,12.64
2022-09-29T04:40:42.525Z,12.65
2022-09-29T04:43:44.613Z,12.65
2022-09-29T04:46:46.946Z,12.51
2022-09-29T04:49:48.987Z,12.42
2022-09-29T04:52:51.266Z,12.42
2022-09-29T04:55:53.445Z,12.45
2022-09-29T04:58:55.739Z,12.50
2022-09-29T05:01:58.311Z,12.61
2022-09-29T05:05:01.106Z,12.57
2022-09-29T05:08:04.349Z,12.58
2022-09-29T05:11:08.256Z,12.60
2022-09-29T05:14:12.790Z,12.67
2022-09-29T05:17:15.083Z,12.55
2022-09-29T05:20:17.243Z,12.52
2022-09-29T05:23:19.566Z,12.71
2022-09-29T05:26:21.690Z,12.88
2022-09-29T05:29:24.021Z,12.89
2022-09-29T05:32:26.182Z,12.76
2022-09-29T05:35:28.567Z,12.85
2022-09-29T05:38:30.585Z,12.96
2022-09-29T05:41:33.162Z,13.01
2022-09-29T05:44:35.192Z,13.02
2022-09-29T05:47:42.041Z,13.04
2022-09-29T05:50:44.099Z,12.98
2022-09-29T05:53:47.262Z,13.08
2022-09-29T05:56:49.529Z,13.03
2022-09-29T05:59:51.876Z,12.91
2022-09-29T06:02:53.957Z,12.82
2022-09-29T06:05:56.260Z,12.84
2022-09-29T06:08:59.144Z,12.78
2022-09-29T06:12:02.663Z,12.78
2022-09-29T06:15:05.851Z,12.69
2022-09-29T06:18:08.117Z,12.58
2022-09-29T06:21:13.118Z,12.64
2022-09-29T06:24:15.543Z,12.66
2022-09-29T06:27:17.719Z,12.77
2022-09-29T06:30:20.013Z,12.78
2022-09-29T06:33:22.245Z,12.74
2022-09-29T06:37:00.757Z,12.77
2022-09-29T06:40:10.105Z,12.77
2022-09-29T06:43:13.270Z,12.69
2022-09-29T06:46:15.348Z,12.62
2022-09-29T06:49:18.900Z,12.62
2022-09-29T06:52:21.691Z,12.67
2022-09-29T06:55:24.048Z,12.64
2022-09-29T06:58:26.497Z,12.67
2022-09-29T07:01:28.834Z,12.63
2022-09-29T07:04:30.873Z,12.67
2022-09-29T07:07:33.149Z,12.61
2022-09-29T07:10:35.307Z,12.67
2022-09-29T07:13:39.257Z,12.67
2022-09-29T07:16:43.228Z,12.70
2022-09-29T07:19:45.534Z,12.79
2022-09-29T07:22:47.706Z,13.00
2022-09-29T07:25:52.444Z,12.98
2022-09-29T07:28:54.754Z,12.88
2022-09-29T07:31:57.043Z,12.90
2022-09-29T07:34:59.915Z,12.89
2022-09-29T07:38:02.187Z,12.88
2022-09-29T07:41:08.581Z,12.83
2022-09-29T07:44:11.395Z,12.88
2022-09-29T07:47:13.823Z,12.94
2022-09-29T07:50:16.138Z,13.02
2022-09-29T07:53:18.734Z,13.04
2022-09-29T07:56:25.082Z,13.17
2022-09-29T07:59:27.689Z,13.34
2022-09-29T08:02:30.024Z,13.41
2022-09-29T08:05:34.050Z,13.52
2022-09-29T08:08:39.114Z,13.52
2022-09-29T08:11:43.322Z,13.63
2022-09-29T08:14:45.398Z,13.67
2022-09-29T08:17:47.705Z,13.60
2022-09-29T08:20:50.019Z,13.66
2022-09-29T08:23:52.520Z,13.74
2022-09-29T08:26:57.898Z,13.73
2022-09-29T08:30:00.514Z,13.80
2022-09-29T08:33:03.929Z,14.02
2022-09-29T08:36:14.844Z,14.04
2022-09-29T08:39:17.022Z,13.97
2022-09-29T08:42:25.244Z,14.04
2022-09-29T08:45:32.202Z,14.25
2022-09-29T08:48:53.842Z,14.39
2022-09-29T08:52:16.216Z,14.43
2022-09-29T08:55:22.031Z,14.59
2022-09-29T08:58:24.860Z,14.51
2022-09-29T09:02:13.910Z,14.45
2022-09-29T09:05:38.350Z,14.70
2022-09-29T09:08:43.427Z,14.82
2022-09-29T09:12:14.814Z,14.90
2022-09-29T09:15:32.686Z,15.06
2022-09-29T09:19:12.481Z,15.29
2022-09-29T09:22:43.444Z,15.43
2022-09-29T09:25:57.955Z,15.56
2022-09-29T09:29:14.895Z,15.65
2022-09-29T09:32:43.247Z,15.46
2022-09-29T09:35:58.582Z,15.14
2022-09-29T09:39:10.211Z,15.15
2022-09-29T09:42:19.937Z,15.14
2022-09-29T09:45:37.663Z,15.11
2022-09-29T09:48:46.705Z,15.33
2022-09-29T09:52:04.591Z,15.33
2022-09-29T09:55:14.968Z,15.29
2022-09-29T09:58:43.671Z,15.38
2022-09-29T10:01:46.233Z,15.51
2022-09-29T10:04:52.058Z,15.56
2022-09-29T10:07:55.841Z,15.60
2022-09-29T10:10:59.917Z,15.71
2022-09-29T10:14:11.553Z,15.98
2022-09-29T10:17:16.345Z,16.11
2022-09-29T10:20:32.031Z,16.11
2022-09-29T10:23:35.834Z,16.23
2022-09-29T10:26:43.349Z,16.51
2022-09-29T10:29:52.425Z,16.36
2022-09-29T10:33:00.364Z,16.35
2022-09-29T10:36:08.986Z,16.48
2022-09-29T10:39:31.195Z,16.72
2022-09-29T10:42:38.361Z,16.91
2022-09-29T10:45:48.767Z,16.87
2022-09-29T10:49:24.529Z,17.02
2022-09-29T10:52:28.809Z,17.05
2022-09-29T10:55:36.433Z,16.89
2022-09-29T10:58:53.294Z,16.95
2022-09-29T11:02:01.843Z,17.07
2022-09-29T11:05:17.365Z,17.10
2022-09-29T11:08:25.717Z,16.95
2022-09-29T11:11:39.406Z,17.15
2022-09-29T11:14:42.914Z,17.28
2022-09-29T11:17:50.189Z,17.33
2022-09-29T11:21:03.994Z,17.45
2022-09-29T11:24:37.217Z,17.63
2022-09-29T11:28:02.449Z,17.61
2022-09-29T11:31:27.530Z,17.47
2022-09-29T11:34:29.858Z,17.27
2022-09-29T11:37:57.219Z,17.10
2022-09-29T11:41:23.169Z,16.94
2022-09-29T11:44:58.289Z,16.87
2022-09-29T11:48:21.851Z,16.88
2022-09-29T11:51:53.311Z,16.95
2022-09-29T11:55:05.458Z,16.86
2022-09-29T11:58:16.410Z,16.92
2022-09-29T12:01:37.573Z,16.87
2022-09-29T12:04:48.626Z,16.80
2022-09-29T12:08:01.440Z,16.73
2022-09-29T12:11:40.529Z,16.63
2022-09-29T12:14:40.619Z,16.66
2022-09-29T12:17:52.885Z,16.51
2022-09-29T12:20:57.864Z,16.50
2022-09-29T12:24:03.810Z,16.27
2022-09-29T12:27:14.228Z,16.12
2022-09-29T12:30:43.869Z,16.00
2022-09-29T12:33:52.321Z,15.97
2022-09-29T12:37:30.418Z,16.10
2022-09-29T12:40:41.367Z,16.18
2022-09-29T12:44:25.613Z,16.20
2022-09-29T12:47:50.042Z,16.15
2022-09-29T12:50:58.789Z,16.10
2022-09-29T12:54:20.345Z,16.24
2022-09-29T12:57:34.768Z,16.29
2022-09-29T13:00:39.805Z,16.20
2022-09-29T13:03:48.110Z,16.20
2022-09-29T13:07:10.042Z,16.23
2022-09-29T13:10:27.428Z,16.33
2022-09-29T13:14:06.825Z,16.53
2022-09-29T13:17:31.875Z,16.76
2022-09-29T13:20:43.655Z,16.94
2022-09-29T13:23:58.889Z,17.19
2022-09-29T13:27:10.618Z,17.31
2022-09-29T13:30:15.889Z,17.45
2022-09-29T13:33:24.544Z,17.47
2022-09-29T13:36:30.109Z,17.28
2022-09-29T13:39:33.380Z,17.27
2022-09-29T13:42:42.042Z,17.19
2022-09-29T13:45:44.961Z,16.97
2022-09-29T13:48:52.651Z,16.78
2022-09-29T13:52:23.273Z,16.75
2022-09-29T13:55:56.744Z,16.55
2022-09-29T13:59:01.650Z,16.48
2022-09-29T14:02:33.885Z,16.43
2022-09-29T14:05:37.982Z,16.50
2022-09-29T14:09:22.630Z,16.52
2022-09-29T14:12:27.805Z,16.37
2022-09-29T14:15:37.623Z,16.34
2022-09-29T14:18:52.370Z,16.49
2022-09-29T14:21:56.955Z,16.49
2022-09-29T14:25:08.333Z,16.52
2022-09-29T14:28:14.676Z,16.46
2022-09-29T14:31:22.168Z,16.43
2022-09-29T14:34:29.298Z,16.51
2022-09-29T14:37:32.369Z,16.52
2022-09-29T14:40:34.436Z,16.65
2022-09-29T14:43:48.134Z,16.69
2022-09-29T14:47:26.858Z,16.67
2022-09-29T14:51:19.937Z,16.61
2022-09-29T14:54:43.085Z,16.49
2022-09-29T14:58:07.595Z,16.50
2022-09-29T15:01:30.259Z,16.48
2022-09-29T15:04:38.998Z,16.44
2022-09-29T15:07:42.291Z,16.42
2022-09-29T15:10:44.624Z,16.42
2022-09-29T15:13:46.678Z,16.39
2022-09-29T15:17:20.069Z,16.39
2022-09-29T15:20:24.862Z,16.32
2022-09-29T15:23:38.912Z,16.14
2022-09-29T15:26:41.551Z,16.11
2022-09-29T15:29:49.093Z,16.06
2022-09-29T15:32:53.674Z,15.97
2022-09-29T15:35:59.345Z,15.85
2022-09-29T15:39:13.338Z,15.77
2022-09-29T15:42:19.431Z,15.83
2022-09-29T15:45:23.258Z,15.73
